Time;durP1;ratioP1;P1;durP2;ratioP2;P2;SDS_P1;SDS_P2;PMS_P1;PMS_P2;Temp;Humidity;BMP_temperature;BMP_pressure;BME280_temperature;BME280_humidity;BME280_pressure;Samples;Min_cycle;Max_cycle;Signal;HPM_P1;HPM_P2
2023/12/28 00:01:16;;;;;;;;;;;8.90;99.90;;;;;;5094695;28;19984;-34
2023/12/28 00:03:43;;;;;;;;;;;9.00;99.90;;;;;;5094440;28;19938;-35
2023/12/28 00:06:09;;;;;;;;;;;9.00;99.90;;;;;;5094563;28;19936;-35
2023/12/28 00:08:36;;;;;;;;;;;9.00;99.90;;;;;;5094597;28;19936;-35
2023/12/28 00:11:04;;;;;;;;;;;9.10;99.90;;;;;;5095100;28;19960;-35
2023/12/28 00:13:31;;;;;;;;;;;9.10;99.90;;;;;;5095499;28;19994;-35
2023/12/28 00:15:58;;;;;;;;;;;9.10;99.90;;;;;;5093414;28;19944;-35
2023/12/28 00:18:24;;;;;;;;;;;9.10;99.90;;;;;;5092008;28;19980;-35
2023/12/28 00:20:51;;;;;;;;;;;9.10;99.90;;;;;;5094954;28;19984;-35
2023/12/28 00:23:19;;;;;;;;;;;9.10;99.90;;;;;;5090783;28;19936;-34
2023/12/28 00:25:46;;;;;;;;;;;9.10;99.90;;;;;;5096590;28;19934;-34
2023/12/28 00:28:14;;;;;;;;;;;9.10;99.90;;;;;;5092976;28;19976;-35
2023/12/28 00:30:41;;;;;;;;;;;9.10;99.90;;;;;;5094684;28;20513;-35
2023/12/28 00:33:07;;;;;;;;;;;9.10;99.90;;;;;;5094636;28;19940;-37
2023/12/28 00:35:34;;;;;;;;;;;9.10;99.90;;;;;;5111871;28;19970;-35
2023/12/28 00:38:01;;;;;;;;;;;9.10;99.90;;;;;;5094702;28;19943;-36
2023/12/28 00:40:27;;;;;;;;;;;9.10;99.90;;;;;;5094311;28;19945;-36
2023/12/28 00:42:54;;;;;;;;;;;9.10;99.90;;;;;;5111930;28;20307;-34
2023/12/28 00:45:22;;;;;;;;;;;9.10;99.90;;;;;;5089881;28;19938;-36
2023/12/28 00:47:49;;;;;;;;;;;9.10;99.90;;;;;;5094329;28;19987;-34
2023/12/28 00:50:16;;;;;;;;;;;9.10;99.90;;;;;;5093711;28;20001;-36
2023/12/28 00:52:43;;;;;;;;;;;9.10;99.90;;;;;;5112422;28;19984;-34
2023/12/28 00:55:09;;;;;;;;;;;9.20;99.90;;;;;;5094377;28;19940;-34
2023/12/28 00:57:36;;;;;;;;;;;9.20;99.90;;;;;;5094171;28;20428;-35
2023/12/28 01:00:03;;;;;;;;;;;9.20;99.90;;;;;;5080100;28;19951;-34
2023/12/28 01:02:31;;;;;;;;;;;9.20;99.90;;;;;;5093891;28;19938;-34
2023/12/28 01:04:57;;;;;;;;;;;9.20;99.90;;;;;;5094349;28;19940;-35
2023/12/28 01:07:24;;;;;;;;;;;9.20;99.90;;;;;;5094345;28;19987;-35
2023/12/28 01:09:50;;;;;;;;;;;9.20;99.90;;;;;;5083263;28;19958;-37
2023/12/28 01:12:17;;;;;;;;;;;9.20;99.90;;;;;;5111124;28;20467;-35
2023/12/28 01:14:44;;;;;;;;;;;9.20;99.90;;;;;;5094100;28;20437;-36
2023/12/28 01:17:10;;;;;;;;;;;9.10;99.90;;;;;;5094604;28;19937;-36
2023/12/28 01:19:38;;;;;;;;;;;9.10;99.90;;;;;;5094090;28;19942;-37
2023/12/28 01:22:05;;;;;;;;;;;9.10;99.90;;;;;;5112040;28;20002;-34
2023/12/28 01:24:32;;;;;;;;;;;9.10;99.90;;;;;;5094115;28;20388;-35
2023/12/28 01:26:58;;;;;;;;;;;9.10;99.90;;;;;;5090870;28;20021;-35
2023/12/28 01:29:25;;;;;;;;;;;9.10;99.90;;;;;;5093506;28;19970;-36
2023/12/28 01:31:51;;;;;;;;;;;9.10;99.90;;;;;;5093713;28;20002;-35
2023/12/28 01:34:18;;;;;;;;;;;9.10;99.90;;;;;;5111559;28;19985;-34
2023/12/28 01:36:47;;;;;;;;;;;9.10;99.90;;;;;;5093419;28;19939;-34
2023/12/28 01:39:15;;;;;;;;;;;9.10;99.90;;;;;;5093994;28;20037;-35
2023/12/28 01:41:41;;;;;;;;;;;9.10;99.90;;;;;;5094909;28;19944;-34
2023/12/28 01:44:08;;;;;;;;;;;9.10;99.90;;;;;;5093714;28;19932;-34
2023/12/28 01:46:34;;;;;;;;;;;9.10;99.90;;;;;;5093840;28;20003;-36
2023/12/28 01:49:01;;;;;;;;;;;9.10;99.90;;;;;;5111695;28;19947;-35
2023/12/28 01:51:28;;;;;;;;;;;9.10;99.90;;;;;;5093233;28;20434;-35
2023/12/28 01:53:56;;;;;;;;;;;9.10;99.90;;;;;;5094009;28;19978;-35
2023/12/28 01:56:22;;;;;;;;;;;9.10;99.90;;;;;;5111441;28;19983;-35
2023/12/28 01:58:49;;;;;;;;;;;9.10;99.90;;;;;;5089731;28;20344;-36
2023/12/28 02:01:16;;;;;;;;;;;9.10;99.90;;;;;;5080913;28;19989;-34
2023/12/28 02:03:43;;;;;;;;;;;9.10;99.90;;;;;;5111518;28;19986;-35
2023/12/28 02:06:09;;;;;;;;;;;9.10;99.90;;;;;;5093694;28;19943;-35
2023/12/28 02:08:36;;;;;;;;;;;9.10;99.90;;;;;;5092263;28;19999;-36
2023/12/28 02:11:04;;;;;;;;;;;9.20;99.90;;;;;;5093532;28;19993;-36
2023/12/28 02:13:31;;;;;;;;;;;9.20;99.90;;;;;;5093650;28;19989;-36
2023/12/28 02:15:58;;;;;;;;;;;9.20;99.90;;;;;;5094592;28;20268;-35
2023/12/28 02:18:26;;;;;;;;;;;9.30;99.90;;;;;;5096718;28;19991;-36
2023/12/28 02:20:53;;;;;;;;;;;9.30;99.90;;;;;;5114601;28;19938;-35
2023/12/28 02:23:20;;;;;;;;;;;9.30;99.90;;;;;;5093811;28;19944;-36
2023/12/28 02:25:48;;;;;;;;;;;9.30;99.90;;;;;;5097318;28;19973;-35
2023/12/28 02:28:14;;;;;;;;;;;9.30;99.90;;;;;;5087564;28;19927;-36
2023/12/28 02:30:41;;;;;;;;;;;9.30;99.90;;;;;;5114679;28;20365;-36
2023/12/28 02:33:08;;;;;;;;;;;9.40;99.90;;;;;;5096200;28;19972;-36
2023/12/28 02:35:37;;;;;;;;;;;9.40;99.90;;;;;;5094594;28;19934;-36
2023/12/28 02:38:04;;;;;;;;;;;9.40;99.90;;;;;;5096084;28;19940;-35
2023/12/28 02:40:30;;;;;;;;;;;9.40;99.90;;;;;;5096818;28;20428;-34
2023/12/28 02:42:58;;;;;;;;;;;9.40;99.90;;;;;;5096482;28;19938;-35
2023/12/28 02:45:25;;;;;;;;;;;9.40;99.90;;;;;;5097027;28;19991;-37
2023/12/28 02:47:52;;;;;;;;;;;9.50;99.90;;;;;;5114571;28;19948;-35
2023/12/28 02:50:19;;;;;;;;;;;9.50;99.90;;;;;;5096262;28;19950;-36
2023/12/28 02:52:45;;;;;;;;;;;9.50;99.90;;;;;;5095095;28;19942;-36
2023/12/28 02:55:12;;;;;;;;;;;9.60;99.90;;;;;;5078682;28;20390;-35
2023/12/28 02:57:38;;;;;;;;;;;9.60;99.90;;;;;;5111380;28;19961;-35
2023/12/28 03:00:08;;;;;;;;;;;9.60;99.90;;;;;;5111909;28;20387;-36
2023/12/28 03:02:35;;;;;;;;;;;9.70;99.90;;;;;;5113894;28;19936;-35
2023/12/28 03:05:02;;;;;;;;;;;9.70;99.90;;;;;;5113560;28;20025;-36
2023/12/28 03:07:28;;;;;;;;;;;9.70;99.90;;;;;;5114136;28;20407;-35
2023/12/28 03:09:55;;;;;;;;;;;9.70;99.90;;;;;;5093920;28;19997;-35
2023/12/28 03:12:22;;;;;;;;;;;9.80;99.90;;;;;;5095051;28;20034;-36
2023/12/28 03:14:48;;;;;;;;;;;9.80;99.90;;;;;;5114284;28;20070;-35
2023/12/28 03:17:16;;;;;;;;;;;9.80;99.90;;;;;;5095523;28;19935;-36
2023/12/28 03:19:43;;;;;;;;;;;9.90;99.90;;;;;;5095666;28;19985;-35
2023/12/28 03:22:09;;;;;;;;;;;9.80;99.90;;;;;;5095184;28;19938;-35
2023/12/28 03:24:37;;;;;;;;;;;9.80;99.90;;;;;;5095461;28;19945;-37
2023/12/28 03:27:04;;;;;;;;;;;9.80;99.90;;;;;;5095558;28;19956;-35
2023/12/28 03:29:30;;;;;;;;;;;9.80;99.90;;;;;;5085146;28;19981;-35
2023/12/28 03:31:57;;;;;;;;;;;9.80;99.90;;;;;;5095325;28;19991;-35
2023/12/28 03:34:26;;;;;;;;;;;9.80;99.90;;;;;;5096077;28;19944;-35
2023/12/28 03:36:52;;;;;;;;;;;9.80;99.90;;;;;;5095570;28;19958;-37
2023/12/28 03:39:19;;;;;;;;;;;9.80;99.90;;;;;;5092353;28;20380;-35
2023/12/28 03:41:46;;;;;;;;;;;9.80;99.90;;;;;;5093369;28;19988;-35
2023/12/28 03:44:12;;;;;;;;;;;9.90;99.90;;;;;;5095223;28;19991;-36
2023/12/28 03:46:39;;;;;;;;;;;9.90;99.90;;;;;;5095733;28;19985;-34
2023/12/28 03:49:06;;;;;;;;;;;9.90;99.90;;;;;;5094799;28;19938;-34
2023/12/28 03:51:34;;;;;;;;;;;9.90;99.90;;;;;;5111830;28;19984;-34
2023/12/28 03:54:00;;;;;;;;;;;9.90;99.90;;;;;;5094173;28;19995;-36
2023/12/28 03:56:27;;;;;;;;;;;9.90;99.90;;;;;;5094787;28;20362;-36
2023/12/28 03:58:54;;;;;;;;;;;9.90;99.90;;;;;;5077254;28;19980;-37
2023/12/28 04:01:21;;;;;;;;;;;9.90;99.90;;;;;;5093578;28;19940;-35
2023/12/28 04:03:48;;;;;;;;;;;9.90;99.90;;;;;;5093498;28;19987;-35
2023/12/28 04:06:15;;;;;;;;;;;9.90;99.90;;;;;;5093933;28;19944;-36
2023/12/28 04:08:43;;;;;;;;;;;9.90;99.90;;;;;;5112836;28;19990;-34
2023/12/28 04:11:09;;;;;;;;;;;9.90;99.90;;;;;;5086721;28;19953;-35
2023/12/28 04:13:36;;;;;;;;;;;9.90;99.90;;;;;;5094204;28;20284;-36
2023/12/28 04:16:02;;;;;;;;;;;9.90;99.90;;;;;;5112274;28;19992;-35
2023/12/28 04:18:32;;;;;;;;;;;10.00;99.90;;;;;;5093819;28;19977;-35
2023/12/28 04:20:59;;;;;;;;;;;10.00;99.90;;;;;;5094650;28;20050;-35
2023/12/28 04:23:25;;;;;;;;;;;10.00;99.90;;;;;;5095354;28;19987;-36
2023/12/28 04:25:53;;;;;;;;;;;9.90;99.90;;;;;;5094530;28;20330;-34
2023/12/28 04:28:20;;;;;;;;;;;10.00;99.90;;;;;;5094258;28;19961;-34
2023/12/28 04:30:47;;;;;;;;;;;10.00;99.90;;;;;;5111562;28;20114;-37
2023/12/28 04:33:13;;;;;;;;;;;10.00;99.90;;;;;;5094202;28;19981;-37
2023/12/28 04:35:40;;;;;;;;;;;10.00;99.90;;;;;;5112658;28;19991;-35
2023/12/28 04:38:09;;;;;;;;;;;10.00;99.90;;;;;;5093403;28;19986;-35
2023/12/28 04:40:35;;;;;;;;;;;10.00;99.90;;;;;;5094377;28;20024;-35
2023/12/28 04:43:04;;;;;;;;;;;10.00;99.90;;;;;;5112298;28;19942;-37
2023/12/28 04:45:30;;;;;;;;;;;10.00;99.90;;;;;;5094414;28;20340;-36
2023/12/28 04:47:57;;;;;;;;;;;10.10;99.90;;;;;;5093909;28;19995;-35
2023/12/28 04:50:23;;;;;;;;;;;10.10;99.90;;;;;;5094790;28;19997;-35
2023/12/28 04:52:50;;;;;;;;;;;10.10;99.90;;;;;;5093795;28;20036;-36
2023/12/28 04:55:17;;;;;;;;;;;10.10;99.90;;;;;;5094219;28;20038;-36
2023/12/28 04:57:43;;;;;;;;;;;10.10;99.90;;;;;;5093577;28;20381;-34
2023/12/28 05:00:12;;;;;;;;;;;10.20;99.90;;;;;;5111746;28;19980;-35
2023/12/28 05:02:38;;;;;;;;;;;10.20;99.90;;;;;;5112407;28;19977;-35
2023/12/28 05:05:05;;;;;;;;;;;10.20;99.90;;;;;;5093946;28;20010;-35
2023/12/28 05:07:32;;;;;;;;;;;10.20;99.90;;;;;;5093970;28;19988;-35
2023/12/28 05:09:59;;;;;;;;;;;10.20;99.90;;;;;;5093910;28;19937;-36
2023/12/28 05:12:26;;;;;;;;;;;10.20;99.90;;;;;;5093840;28;19995;-36
2023/12/28 05:14:52;;;;;;;;;;;10.20;99.90;;;;;;5094365;28;19950;-36
2023/12/28 05:17:20;;;;;;;;;;;10.20;99.90;;;;;;5093630;28;19942;-37
2023/12/28 05:19:47;;;;;;;;;;;10.20;99.90;;;;;;5111904;28;19940;-35
2023/12/28 05:22:14;;;;;;;;;;;10.30;99.90;;;;;;5111195;28;19990;-36
2023/12/28 05:24:40;;;;;;;;;;;10.30;99.90;;;;;;5111817;28;19946;-34
2023/12/28 05:27:07;;;;;;;;;;;10.30;99.90;;;;;;5094220;28;20439;-37
2023/12/28 05:29:34;;;;;;;;;;;10.30;99.90;;;;;;5093967;28;20083;-37
2023/12/28 05:32:00;;;;;;;;;;;10.30;99.90;;;;;;5093447;28;20367;-35
2023/12/28 05:34:28;;;;;;;;;;;10.30;99.90;;;;;;5094064;28;19936;-36
2023/12/28 05:36:55;;;;;;;;;;;10.30;99.90;;;;;;5094251;28;20006;-37
2023/12/28 05:39:21;;;;;;;;;;;10.30;99.90;;;;;;5093661;28;19984;-36
2023/12/28 05:41:50;;;;;;;;;;;10.30;99.90;;;;;;5111688;28;20272;-36
2023/12/28 05:44:17;;;;;;;;;;;10.40;99.90;;;;;;5112015;28;20027;-38
2023/12/28 05:46:43;;;;;;;;;;;10.30;99.90;;;;;;5111322;28;20367;-35
2023/12/28 05:49:10;;;;;;;;;;;10.40;99.90;;;;;;5095017;28;19938;-36
2023/12/28 05:51:41;;;;;;;;;;;10.40;99.90;;;;;;5098434;28;20005;-36
2023/12/28 05:54:08;;;;;;;;;;;10.40;99.90;;;;;;5097830;28;19969;-35
2023/12/28 05:56:34;;;;;;;;;;;10.40;99.90;;;;;;5097427;28;20064;-35
2023/12/28 05:59:01;;;;;;;;;;;10.40;99.90;;;;;;5096838;28;19991;-35
2023/12/28 06:01:28;;;;;;;;;;;10.40;99.90;;;;;;5095930;28;20031;-35
2023/12/28 06:03:54;;;;;;;;;;;10.40;99.90;;;;;;5115439;28;19941;-37
2023/12/28 06:06:21;;;;;;;;;;;10.40;99.90;;;;;;5097711;28;19987;-35
2023/12/28 06:08:49;;;;;;;;;;;10.40;99.90;;;;;;5096422;28;19981;-36
2023/12/28 06:11:16;;;;;;;;;;;10.40;99.90;;;;;;5114148;28;19952;-35
2023/12/28 06:13:42;;;;;;;;;;;10.40;99.90;;;;;;5096708;28;19940;-35
2023/12/28 06:16:09;;;;;;;;;;;10.40;99.90;;;;;;5096676;28;19997;-36
2023/12/28 06:18:36;;;;;;;;;;;10.40;99.90;;;;;;5092559;28;20001;-36
2023/12/28 06:21:05;;;;;;;;;;;10.40;99.90;;;;;;5114134;28;20440;-35
2023/12/28 06:23:32;;;;;;;;;;;10.40;99.90;;;;;;5093934;28;19944;-35
2023/12/28 06:26:04;;;;;;;;;;;10.30;99.90;;;;;;5096808;28;19938;-36
2023/12/28 06:28:31;;;;;;;;;;;10.40;99.90;;;;;;5095712;28;20517;-36
2023/12/28 06:31:00;;;;;;;;;;;10.40;99.90;;;;;;5112727;28;20032;-36
2023/12/28 06:33:27;;;;;;;;;;;10.40;99.90;;;;;;5095865;28;19932;-35
2023/12/28 06:35:54;;;;;;;;;;;10.40;99.90;;;;;;5096353;28;19942;-37
2023/12/28 06:38:20;;;;;;;;;;;10.40;99.90;;;;;;5096659;28;19935;-35
2023/12/28 06:40:47;;;;;;;;;;;10.40;99.90;;;;;;5096027;28;19941;-35
2023/12/28 06:43:15;;;;;;;;;;;10.40;99.90;;;;;;5097499;28;19994;-34
2023/12/28 06:45:42;;;;;;;;;;;10.30;99.90;;;;;;5113557;28;20341;-34
2023/12/28 06:48:08;;;;;;;;;;;10.40;99.90;;;;;;5096286;28;20301;-34
2023/12/28 06:50:35;;;;;;;;;;;10.40;99.90;;;;;;5114475;28;19989;-36
2023/12/28 06:53:01;;;;;;;;;;;10.40;99.90;;;;;;5096268;28;20048;-35
2023/12/28 06:55:28;;;;;;;;;;;10.40;99.90;;;;;;5095204;28;19934;-37
2023/12/28 06:57:55;;;;;;;;;;;10.40;99.90;;;;;;5093154;28;20387;-34
2023/12/28 07:00:23;;;;;;;;;;;10.40;99.90;;;;;;5109069;28;20020;-35
2023/12/28 07:02:49;;;;;;;;;;;10.40;99.90;;;;;;5094191;28;19935;-35
2023/12/28 07:05:16;;;;;;;;;;;10.40;99.90;;;;;;5113992;28;19938;-34
2023/12/28 07:07:43;;;;;;;;;;;10.40;99.90;;;;;;5114196;28;19940;-34
2023/12/28 07:10:10;;;;;;;;;;;10.50;99.90;;;;;;5095589;28;19995;-36
2023/12/28 07:12:36;;;;;;;;;;;10.50;99.90;;;;;;5114889;28;19965;-35
2023/12/28 07:15:03;;;;;;;;;;;10.50;99.90;;;;;;5113664;28;20001;-36
2023/12/28 07:17:31;;;;;;;;;;;10.60;99.90;;;;;;5093642;28;19993;-35
2023/12/28 07:19:58;;;;;;;;;;;10.60;99.90;;;;;;5109555;28;19941;-35
2023/12/28 07:22:24;;;;;;;;;;;10.50;99.90;;;;;;5095139;28;20235;-35
2023/12/28 07:24:51;;;;;;;;;;;10.50;99.90;;;;;;5096863;28;19941;-36
2023/12/28 07:27:18;;;;;;;;;;;10.50;99.90;;;;;;5096471;28;20019;-34
2023/12/28 07:29:44;;;;;;;;;;;10.50;99.90;;;;;;5091763;28;20383;-35
2023/12/28 07:32:11;;;;;;;;;;;10.60;99.90;;;;;;5089700;28;20483;-35
2023/12/28 07:34:39;;;;;;;;;;;10.50;99.90;;;;;;5092419;28;19992;-34
2023/12/28 07:37:05;;;;;;;;;;;10.50;99.90;;;;;;5094905;28;19935;-35
2023/12/28 07:39:35;;;;;;;;;;;10.50;99.90;;;;;;5105592;28;20304;-35
2023/12/28 07:42:02;;;;;;;;;;;10.50;99.90;;;;;;5090582;28;19937;-35
2023/12/28 07:44:28;;;;;;;;;;;10.50;99.90;;;;;;5106814;28;19936;-37
2023/12/28 07:46:55;;;;;;;;;;;10.50;99.90;;;;;;5088515;28;20392;-35
2023/12/28 07:49:22;;;;;;;;;;;10.50;99.90;;;;;;5108358;28;20358;-35
2023/12/28 07:51:50;;;;;;;;;;;10.50;99.90;;;;;;5107607;28;20370;-35
2023/12/28 07:54:17;;;;;;;;;;;10.50;99.90;;;;;;5107007;28;19938;-35
2023/12/28 07:56:43;;;;;;;;;;;10.50;99.90;;;;;;5091383;28;19993;-35
2023/12/28 07:59:10;;;;;;;;;;;10.50;99.90;;;;;;5088679;28;19987;-35
2023/12/28 08:01:37;;;;;;;;;;;10.50;99.90;;;;;;5088506;28;19944;-34
2023/12/28 08:04:03;;;;;;;;;;;10.50;99.90;;;;;;5089425;28;20345;-34
2023/12/28 08:06:32;;;;;;;;;;;10.50;99.90;;;;;;5094352;28;19951;-33
2023/12/28 08:09:00;;;;;;;;;;;10.50;99.90;;;;;;5109482;28;19935;-36
2023/12/28 08:11:27;;;;;;;;;;;10.40;99.90;;;;;;5093154;28;19941;-36
2023/12/28 08:13:53;;;;;;;;;;;10.40;99.90;;;;;;5094302;28;19956;-34
2023/12/28 08:16:20;;;;;;;;;;;10.40;99.90;;;;;;5094751;28;20399;-35
2023/12/28 08:18:47;;;;;;;;;;;10.40;99.90;;;;;;5094380;28;19960;-35
2023/12/28 08:21:13;;;;;;;;;;;10.40;99.90;;;;;;5093999;28;19969;-34
2023/12/28 08:23:40;;;;;;;;;;;10.40;99.90;;;;;;5094670;28;19943;-35
2023/12/28 08:26:08;;;;;;;;;;;10.40;99.90;;;;;;5094417;28;20355;-35
2023/12/28 08:28:35;;;;;;;;;;;10.40;99.90;;;;;;5093459;28;19957;-35
2023/12/28 08:31:01;;;;;;;;;;;10.40;99.90;;;;;;5093274;28;19936;-34
2023/12/28 08:33:28;;;;;;;;;;;10.40;99.90;;;;;;5089193;28;20398;-34
2023/12/28 08:35:55;;;;;;;;;;;10.40;99.90;;;;;;5092660;28;19986;-35
2023/12/28 08:38:21;;;;;;;;;;;10.50;99.90;;;;;;5093955;28;19949;-35
2023/12/28 08:40:48;;;;;;;;;;;10.40;99.90;;;;;;5112064;28;20042;-34
2023/12/28 08:43:16;;;;;;;;;;;10.40;99.90;;;;;;5093358;28;19936;-34
2023/12/28 08:45:43;;;;;;;;;;;10.40;99.90;;;;;;5093489;28;19989;-33
2023/12/28 08:48:09;;;;;;;;;;;10.50;99.90;;;;;;5092485;28;20405;-35
2023/12/28 08:50:36;;;;;;;;;;;10.50;99.90;;;;;;5093325;28;19994;-34
2023/12/28 08:53:02;;;;;;;;;;;10.50;99.90;;;;;;5092747;28;20006;-35
2023/12/28 08:55:29;;;;;;;;;;;10.50;99.90;;;;;;5094168;28;19988;-36
2023/12/28 08:57:56;;;;;;;;;;;10.50;99.90;;;;;;5093923;28;20011;-35
2023/12/28 09:00:24;;;;;;;;;;;10.50;99.90;;;;;;5094806;28;19940;-35
2023/12/28 09:02:51;;;;;;;;;;;10.50;99.90;;;;;;5081852;28;19941;-38
2023/12/28 09:05:18;;;;;;;;;;;10.50;99.90;;;;;;5086228;28;19968;-34
2023/12/28 09:07:44;;;;;;;;;;;10.50;99.90;;;;;;5093188;28;19997;-35
2023/12/28 09:10:11;;;;;;;;;;;10.50;99.90;;;;;;5094021;28;19938;-34
2023/12/28 09:12:38;;;;;;;;;;;10.50;99.90;;;;;;5093073;28;20040;-35
2023/12/28 09:15:05;;;;;;;;;;;10.50;99.90;;;;;;5092396;28;19936;-36
2023/12/28 09:17:33;;;;;;;;;;;10.50;99.90;;;;;;5093569;28;19946;-36
2023/12/28 09:20:01;;;;;;;;;;;10.50;99.90;;;;;;5109214;28;19938;-35
2023/12/28 09:22:27;;;;;;;;;;;10.50;99.90;;;;;;5110829;28;20022;-35
2023/12/28 09:24:54;;;;;;;;;;;10.50;99.90;;;;;;5116794;28;19945;-35
2023/12/28 09:27:21;;;;;;;;;;;10.50;99.90;;;;;;5086324;28;19989;-34
2023/12/28 09:29:47;;;;;;;;;;;10.60;99.90;;;;;;5108943;28;19928;-35
2023/12/28 09:32:14;;;;;;;;;;;10.60;99.90;;;;;;5097952;28;19950;-34
2023/12/28 09:34:42;;;;;;;;;;;10.60;99.90;;;;;;5097773;28;19981;-34
2023/12/28 09:37:08;;;;;;;;;;;10.60;99.90;;;;;;5098212;28;20320;-37
2023/12/28 09:39:35;;;;;;;;;;;10.60;99.90;;;;;;5116938;28;20349;-35
2023/12/28 09:42:04;;;;;;;;;;;10.70;99.90;;;;;;5098479;28;20024;-34
2023/12/28 09:44:30;;;;;;;;;;;10.70;99.90;;;;;;5098127;28;19979;-35
2023/12/28 09:46:57;;;;;;;;;;;10.70;99.90;;;;;;5097663;28;20337;-36
2023/12/28 09:49:24;;;;;;;;;;;10.70;99.90;;;;;;5096332;28;19940;-35
2023/12/28 09:51:52;;;;;;;;;;;10.70;99.90;;;;;;5097858;28;20005;-36
2023/12/28 09:54:19;;;;;;;;;;;10.70;99.90;;;;;;5097925;28;19938;-36
2023/12/28 09:56:45;;;;;;;;;;;10.70;99.90;;;;;;5097259;28;20397;-35
2023/12/28 09:59:12;;;;;;;;;;;10.80;99.90;;;;;;5095725;28;19968;-34
2023/12/28 10:01:39;;;;;;;;;;;10.80;99.90;;;;;;5097097;28;19940;-36
2023/12/28 10:04:07;;;;;;;;;;;10.80;99.90;;;;;;5097171;28;19936;-35
2023/12/28 10:06:34;;;;;;;;;;;10.80;99.90;;;;;;5097425;28;19957;-35
2023/12/28 10:09:02;;;;;;;;;;;10.80;99.90;;;;;;5114755;28;19981;-37
2023/12/28 10:11:29;;;;;;;;;;;10.80;99.90;;;;;;5115108;28;20012;-34
2023/12/28 10:13:57;;;;;;;;;;;10.90;99.90;;;;;;5097424;28;19960;-35
2023/12/28 10:16:23;;;;;;;;;;;10.80;99.90;;;;;;5094390;28;19939;-34
2023/12/28 10:18:50;;;;;;;;;;;10.90;99.90;;;;;;5095087;28;19989;-34
2023/12/28 10:21:16;;;;;;;;;;;10.80;99.90;;;;;;5114050;28;19947;-35
2023/12/28 10:23:43;;;;;;;;;;;10.80;99.90;;;;;;5091076;28;20397;-34
2023/12/28 10:26:11;;;;;;;;;;;10.90;99.90;;;;;;5115123;28;19940;-36
2023/12/28 10:28:39;;;;;;;;;;;10.90;99.90;;;;;;5095199;28;20049;-35
2023/12/28 10:31:06;;;;;;;;;;;10.90;99.90;;;;;;5076990;28;19988;-35
2023/12/28 10:33:35;;;;;;;;;;;10.90;99.90;;;;;;5077503;28;19960;-35
2023/12/28 10:36:01;;;;;;;;;;;10.90;99.90;;;;;;5075263;28;19937;-35
2023/12/28 10:38:30;;;;;;;;;;;10.90;99.90;;;;;;5076748;28;19932;-35
2023/12/28 10:40:56;;;;;;;;;;;10.90;99.90;;;;;;5093315;28;19928;-36
2023/12/28 10:43:24;;;;;;;;;;;11.00;99.90;;;;;;5076856;28;19940;-36
2023/12/28 10:45:51;;;;;;;;;;;10.90;99.90;;;;;;5077383;28;19944;-34
2023/12/28 10:48:19;;;;;;;;;;;10.90;99.90;;;;;;5077116;28;19940;-35
2023/12/28 10:50:47;;;;;;;;;;;10.90;99.90;;;;;;5076073;28;20000;-35
2023/12/28 10:53:27;;;;;;;;;;;11.00;99.90;;;;;;5076699;28;19956;-36
2023/12/28 10:55:55;;;;;;;;;;;10.90;99.90;;;;;;5077037;28;19990;-36
2023/12/28 10:58:24;;;;;;;;;;;11.00;99.90;;;;;;5076030;28;20406;-35
2023/12/28 11:00:53;;;;;;;;;;;11.00;99.90;;;;;;5073680;28;20422;-35
2023/12/28 11:03:24;;;;;;;;;;;11.00;99.90;;;;;;5069781;28;19971;-34
2023/12/28 11:05:51;;;;;;;;;;;10.90;99.90;;;;;;5075754;28;19942;-36
2023/12/28 11:08:18;;;;;;;;;;;10.90;99.90;;;;;;5075790;28;19976;-34
2023/12/28 11:10:44;;;;;;;;;;;10.90;99.90;;;;;;5076483;28;20377;-34
2023/12/28 11:13:11;;;;;;;;;;;10.90;99.90;;;;;;5074656;28;20074;-35
2023/12/28 11:15:38;;;;;;;;;;;10.90;99.90;;;;;;5075338;28;19945;-35
2023/12/28 11:18:06;;;;;;;;;;;11.00;99.90;;;;;;5074447;28;20479;-35
2023/12/28 11:20:33;;;;;;;;;;;10.90;99.90;;;;;;5076259;28;19985;-33
2023/12/28 11:23:00;;;;;;;;;;;10.90;99.90;;;;;;5076564;28;19942;-34
2023/12/28 11:25:31;;;;;;;;;;;10.90;99.90;;;;;;5076132;28;19940;-34
2023/12/28 11:27:58;;;;;;;;;;;10.90;99.90;;;;;;5107969;28;20003;-35
2023/12/28 11:30:26;;;;;;;;;;;10.90;99.90;;;;;;5092178;28;19937;-35
2023/12/28 11:32:53;;;;;;;;;;;10.90;99.90;;;;;;5114325;28;19961;-35
2023/12/28 11:35:21;;;;;;;;;;;10.90;99.90;;;;;;5113678;28;19940;-34
2023/12/28 11:37:49;;;;;;;;;;;10.90;99.90;;;;;;5114461;28;19940;-34
2023/12/28 11:40:18;;;;;;;;;;;10.90;99.90;;;;;;5092902;28;19961;-34
2023/12/28 11:42:49;;;;;;;;;;;10.90;99.90;;;;;;5092980;28;19985;-36
2023/12/28 11:45:17;;;;;;;;;;;11.00;99.90;;;;;;5091067;28;20039;-35
2023/12/28 11:47:44;;;;;;;;;;;11.00;99.90;;;;;;5105040;28;20323;-35
2023/12/28 11:50:12;;;;;;;;;;;11.00;99.90;;;;;;5107494;28;20350;-36
2023/12/28 11:52:40;;;;;;;;;;;10.90;99.90;;;;;;5101872;28;20028;-35
2023/12/28 11:55:07;;;;;;;;;;;11.00;99.90;;;;;;5114380;28;20357;-34
2023/12/28 11:57:33;;;;;;;;;;;11.00;99.90;;;;;;5112913;28;19935;-34
2023/12/28 12:00:02;;;;;;;;;;;11.00;99.90;;;;;;5090464;28;20473;-34
2023/12/28 12:02:28;;;;;;;;;;;11.00;99.90;;;;;;5088363;28;19939;-34
2023/12/28 12:04:57;;;;;;;;;;;11.00;99.90;;;;;;5090939;28;20008;-34
2023/12/28 12:07:24;;;;;;;;;;;11.00;99.90;;;;;;5085049;28;20019;-36
2023/12/28 12:09:52;;;;;;;;;;;11.00;99.90;;;;;;5107855;28;19938;-34
2023/12/28 12:12:18;;;;;;;;;;;11.00;99.90;;;;;;5090818;28;19942;-36
2023/12/28 12:14:45;;;;;;;;;;;11.00;99.90;;;;;;5091905;28;19964;-34
2023/12/28 12:17:12;;;;;;;;;;;11.00;99.90;;;;;;5091317;28;19941;-34
2023/12/28 12:19:38;;;;;;;;;;;11.00;99.90;;;;;;5111493;28;19985;-35
2023/12/28 12:22:05;;;;;;;;;;;11.00;99.90;;;;;;5113176;28;19975;-35
2023/12/28 12:24:32;;;;;;;;;;;11.00;99.90;;;;;;5093515;28;19941;-34
2023/12/28 12:27:02;;;;;;;;;;;11.00;99.90;;;;;;5090458;28;20035;-33
2023/12/28 12:29:30;;;;;;;;;;;11.00;99.90;;;;;;5110224;28;19936;-33
2023/12/28 12:31:56;;;;;;;;;;;11.00;99.90;;;;;;5085106;28;20041;-34
2023/12/28 12:34:23;;;;;;;;;;;11.00;99.90;;;;;;5089090;28;20000;-35
2023/12/28 12:36:52;;;;;;;;;;;11.00;99.90;;;;;;5091876;28;19940;-35
2023/12/28 12:39:18;;;;;;;;;;;11.00;99.90;;;;;;5108503;28;19935;-35
2023/12/28 12:41:47;;;;;;;;;;;11.00;99.90;;;;;;5088809;28;19950;-35
2023/12/28 12:44:16;;;;;;;;;;;11.00;99.90;;;;;;5089321;28;19936;-35
2023/12/28 12:46:43;;;;;;;;;;;11.00;99.90;;;;;;5087320;28;19946;-35
2023/12/28 12:49:10;;;;;;;;;;;11.00;99.90;;;;;;5096209;28;19966;-38
2023/12/28 12:51:36;;;;;;;;;;;11.00;99.90;;;;;;5093765;28;20000;-35
2023/12/28 12:54:03;;;;;;;;;;;11.00;99.90;;;;;;5112908;28;20372;-36
2023/12/28 12:56:30;;;;;;;;;;;11.00;99.90;;;;;;5111303;28;19938;-34
2023/12/28 12:58:57;;;;;;;;;;;11.00;99.90;;;;;;5090489;28;19938;-37
2023/12/28 13:01:25;;;;;;;;;;;11.00;99.90;;;;;;5110003;28;19939;-35
2023/12/28 13:03:51;;;;;;;;;;;11.00;99.90;;;;;;5083868;28;19983;-35
2023/12/28 13:06:18;;;;;;;;;;;11.00;99.90;;;;;;5088233;28;19989;-34
2023/12/28 13:08:45;;;;;;;;;;;11.00;99.90;;;;;;5111180;28;20464;-34
2023/12/28 13:11:11;;;;;;;;;;;11.00;99.90;;;;;;5085545;28;19935;-37
2023/12/28 13:13:38;;;;;;;;;;;11.00;99.90;;;;;;5109571;28;19955;-33
2023/12/28 13:16:05;;;;;;;;;;;11.00;99.90;;;;;;5108949;28;19939;-34
2023/12/28 13:18:35;;;;;;;;;;;11.00;99.90;;;;;;5094302;28;20432;-36
2023/12/28 13:21:01;;;;;;;;;;;11.00;99.90;;;;;;5089790;28;20391;-35
2023/12/28 13:23:28;;;;;;;;;;;11.00;99.90;;;;;;5091758;28;19985;-37
2023/12/28 13:25:55;;;;;;;;;;;11.00;99.90;;;;;;5111186;28;19937;-34
2023/12/28 13:28:22;;;;;;;;;;;11.00;99.90;;;;;;5089052;28;20008;-34
2023/12/28 13:30:50;;;;;;;;;;;11.00;99.90;;;;;;5111121;28;19991;-34
2023/12/28 13:33:17;;;;;;;;;;;11.00;99.90;;;;;;5111219;28;20047;-36
2023/12/28 13:35:45;;;;;;;;;;;11.00;99.90;;;;;;5109607;28;19940;-35
2023/12/28 13:38:11;;;;;;;;;;;10.90;99.90;;;;;;5110915;28;19941;-35
2023/12/28 13:40:38;;;;;;;;;;;10.90;99.90;;;;;;5106473;28;19942;-35
2023/12/28 13:43:05;;;;;;;;;;;10.90;99.90;;;;;;5091265;28;20346;-36
2023/12/28 13:45:31;;;;;;;;;;;10.90;99.90;;;;;;5091227;28;19941;-35
2023/12/28 13:47:58;;;;;;;;;;;10.90;99.90;;;;;;5112195;28;19993;-34
2023/12/28 13:50:25;;;;;;;;;;;10.90;99.90;;;;;;5111404;28;19938;-34
2023/12/28 13:52:53;;;;;;;;;;;10.90;99.90;;;;;;5089405;28;19988;-33
2023/12/28 13:55:19;;;;;;;;;;;10.90;99.90;;;;;;5089587;28;19999;-34
2023/12/28 13:57:46;;;;;;;;;;;10.90;99.90;;;;;;5085711;28;19988;-35
2023/12/28 14:00:13;;;;;;;;;;;10.90;99.90;;;;;;5106673;28;20406;-34
2023/12/28 14:02:40;;;;;;;;;;;10.90;99.90;;;;;;5103594;28;19986;-34
2023/12/28 14:05:07;;;;;;;;;;;10.90;99.90;;;;;;5090511;28;19947;-33
2023/12/28 14:07:34;;;;;;;;;;;10.90;99.90;;;;;;5110856;28;19937;-34
2023/12/28 14:10:02;;;;;;;;;;;10.80;99.90;;;;;;5112569;28;20418;-34
2023/12/28 14:12:28;;;;;;;;;;;10.90;99.90;;;;;;5114511;27;20032;-33
2023/12/28 14:14:55;;;;;;;;;;;10.90;99.90;;;;;;5092597;28;20428;-34
2023/12/28 14:17:21;;;;;;;;;;;10.90;99.90;;;;;;5093240;28;19944;-34
2023/12/28 14:19:48;;;;;;;;;;;10.90;99.90;;;;;;5079704;28;20373;-34